Paynesville, Missouri
Current Conditions -  °F | °C
As of 12:55 AM on Sunday 26 Oct 2014 (Local Time) from KPPQ Reporting Station
Clear Clear  
Wind Chill: 59°   Ceiling: Unl
Heat Index: 59°   Visibility: 10mi
Dew Point: 40°   Wind: 7mph
Humidity: 49%   Direction: 20°NNE
Pressure: 30.05"   Gusts: NA
Location:  39.3277°N, 90.9481°W
Report Text: KPPQ 260555Z AUTO 02006KT 10SM CLR 15/05 A3005 RMK AO2 T01520045 10199 20125 402680125
Loading
Personal Weather Stations






























Interactive Weather Map New forecast layout! Learn more

10-Day Weather Forecast

Advertisements
Track Severe Weather on mobile